createdAt,value
2022-10-29T00:04:23.025Z,101219.76
2022-10-29T00:09:28.606Z,101233.92
2022-10-29T00:14:34.404Z,101260.14
2022-10-29T00:19:39.877Z,101247.83
2022-10-29T00:24:45.555Z,101253.13
2022-10-29T00:29:51.004Z,101270.73
2022-10-29T00:34:56.516Z,101270.16
2022-10-29T00:40:01.897Z,101276.19
2022-10-29T00:45:09.529Z,101280.61
2022-10-29T00:50:16.125Z,101282.05
2022-10-29T00:55:22.081Z,101287.50
2022-10-29T01:00:28.028Z,101277.89
2022-10-29T01:05:36.252Z,101283.55
2022-10-29T01:10:50.729Z,101277.02
2022-10-29T01:16:21.953Z,101297.09
2022-10-29T01:21:42.897Z,101288.22
2022-10-29T01:27:17.208Z,101290.54
2022-10-29T01:32:34.455Z,101280.11
2022-10-29T01:37:51.690Z,101288.83
2022-10-29T01:43:09.193Z,101307.98
2022-10-29T01:48:20.399Z,101305.17
2022-10-29T01:53:28.041Z,101307.36
2022-10-29T01:58:35.375Z,101298.91
2022-10-29T02:03:55.974Z,101295.31
2022-10-29T02:09:30.274Z,101312.98
2022-10-29T02:14:38.784Z,101319.49
2022-10-29T02:19:44.629Z,101329.08
2022-10-29T02:24:50.409Z,101329.08
2022-10-29T02:29:55.807Z,101315.81
2022-10-29T02:35:02.541Z,101316.16
2022-10-29T02:40:09.091Z,101307.91
2022-10-29T02:45:14.561Z,101309.38
2022-10-29T02:50:20.122Z,101307.28
2022-10-29T02:55:25.564Z,101317.48
2022-10-29T03:00:30.965Z,101315.39
2022-10-29T03:05:37.876Z,101322.98
2022-10-29T03:10:43.535Z,101322.34
2022-10-29T03:15:48.993Z,101313.22
2022-10-29T03:20:54.532Z,101322.54
2022-10-29T03:26:00.091Z,101325.84
2022-10-29T03:31:06.508Z,101339.96
2022-10-29T03:36:12.134Z,101333.20
2022-10-29T03:41:17.655Z,101352.72
2022-10-29T03:46:23.123Z,101357.11
2022-10-29T03:51:28.740Z,101362.36
2022-10-29T03:56:34.194Z,101350.30
2022-10-29T04:01:39.729Z,101356.79
2022-10-29T04:06:45.503Z,101359.45
2022-10-29T04:11:51.045Z,101376.25
2022-10-29T04:16:56.575Z,101387.05
2022-10-29T04:24:06.418Z,101388.83
2022-10-29T04:28:17.996Z,101396.17
2022-10-29T04:32:16.376Z,101395.12
2022-10-29T04:37:21.869Z,101395.34
2022-10-29T04:42:27.262Z,101402.31
2022-10-29T04:47:32.895Z,101399.23
2022-10-29T04:52:38.288Z,101401.28
2022-10-29T04:57:43.766Z,101396.96
2022-10-29T05:02:51.448Z,101399.01
2022-10-29T05:08:01.508Z,101399.84
2022-10-29T05:13:12.756Z,101391.06
2022-10-29T05:18:18.720Z,101387.32
2022-10-29T05:23:25.063Z,101398.70
2022-10-29T05:28:30.614Z,101402.66
2022-10-29T05:33:36.076Z,101411.84
2022-10-29T05:38:41.468Z,101420.04
2022-10-29T05:43:51.380Z,101421.56
2022-10-29T05:48:57.043Z,101429.97
2022-10-29T05:54:02.700Z,101433.05
2022-10-29T05:59:08.213Z,101412.91
2022-10-29T06:04:13.643Z,101412.77
2022-10-29T06:09:19.124Z,101435.64
2022-10-29T06:14:25.215Z,101432.47
2022-10-29T06:19:30.702Z,101433.84
2022-10-29T06:24:36.327Z,101439.97
2022-10-29T06:29:41.865Z,101436.89
2022-10-29T06:34:47.390Z,101441.42
2022-10-29T06:39:52.985Z,101456.26
2022-10-29T06:44:58.961Z,101458.33
2022-10-29T06:50:04.826Z,101474.66
2022-10-29T06:55:11.281Z,101458.20
2022-10-29T07:00:17.129Z,101482.00
2022-10-29T07:05:22.879Z,101475.84
2022-10-29T07:10:30.415Z,101479.97
2022-10-29T07:15:36.111Z,101475.13
2022-10-29T07:20:44.500Z,101476.89
2022-10-29T07:25:51.423Z,101486.44
2022-10-29T07:30:59.857Z,101507.83
2022-10-29T07:36:05.892Z,101516.89
2022-10-29T07:41:11.583Z,101519.11
2022-10-29T07:46:17.047Z,101534.37
2022-10-29T07:51:22.561Z,101526.62
2022-10-29T07:56:28.094Z,101536.45
2022-10-29T08:01:34.729Z,101537.53
2022-10-29T08:06:40.775Z,101536.77
2022-10-29T08:16:55.006Z,101556.70
2022-10-29T08:22:00.828Z,101554.02
2022-10-29T08:27:06.463Z,101547.05
2022-10-29T08:32:11.950Z,101570.28
2022-10-29T08:37:17.550Z,101562.25
2022-10-29T08:42:48.433Z,101565.80
2022-10-29T08:48:15.019Z,101562.34
2022-10-29T08:53:30.053Z,101570.03
2022-10-29T08:58:39.597Z,101579.09
2022-10-29T09:03:47.791Z,101589.75
2022-10-29T09:09:05.347Z,101606.22
2022-10-29T09:14:28.625Z,101592.05
2022-10-29T09:19:39.905Z,101588.55
2022-10-29T09:24:48.417Z,101593.07
2022-10-29T09:29:56.948Z,101582.31
2022-10-29T09:35:05.487Z,101594.81
2022-10-29T09:40:35.068Z,101598.12
2022-10-29T09:45:52.217Z,101604.11
2022-10-29T09:51:00.656Z,101610.71
2022-10-29T09:56:08.313Z,101592.92
2022-10-29T10:01:14.936Z,101614.78
2022-10-29T10:06:20.686Z,101609.43
2022-10-29T10:11:28.584Z,101613.33
2022-10-29T10:16:34.821Z,101603.97
2022-10-29T10:21:40.556Z,101597.53
2022-10-29T10:26:46.096Z,101611.59
2022-10-29T10:32:00.188Z,101601.09
2022-10-29T10:37:08.759Z,101599.52
2022-10-29T10:42:39.634Z,101598.71
2022-10-29T10:47:50.930Z,101591.52
2022-10-29T10:52:59.350Z,101581.61
2022-10-29T10:58:16.958Z,101572.27
2022-10-29T11:03:41.717Z,101573.51
2022-10-29T11:09:02.201Z,101571.06
2022-10-29T11:14:29.071Z,101576.97
2022-10-29T11:19:43.549Z,101564.34
2022-10-29T11:24:57.775Z,101573.39
2022-10-29T11:30:09.070Z,101576.67
2022-10-29T11:35:17.515Z,101568.48
2022-10-29T11:40:28.794Z,101564.84
2022-10-29T11:45:52.402Z,101556.87
2022-10-29T11:51:09.809Z,101551.34
2022-10-29T11:56:26.991Z,101552.45
2022-10-29T12:01:50.635Z,101541.67
2022-10-29T12:07:01.807Z,101527.14
2022-10-29T12:12:13.184Z,101520.60
2022-10-29T12:17:27.347Z,101524.17
2022-10-29T12:23:02.511Z,101528.85
2022-10-29T12:28:14.300Z,101516.31
2022-10-29T12:33:22.735Z,101521.47
2022-10-29T12:38:40.495Z,101517.77
2022-10-29T12:43:47.061Z,101532.58
2022-10-29T12:49:01.675Z,101531.70
2022-10-29T12:54:19.073Z,101519.73
2022-10-29T12:59:30.858Z,101531.70
2022-10-29T13:04:36.322Z,101524.43
2022-10-29T13:09:44.319Z,101528.98
2022-10-29T13:14:55.009Z,101518.73
2022-10-29T13:20:03.372Z,101528.24
2022-10-29T13:25:41.539Z,101515.54
2022-10-29T13:30:52.902Z,101514.45
2022-10-29T13:36:01.320Z,101514.69
2022-10-29T13:41:12.790Z,101502.88
2022-10-29T13:46:21.373Z,101507.19
2022-10-29T13:51:33.557Z,101515.20
2022-10-29T13:56:57.132Z,101527.02
2022-10-29T14:02:32.986Z,101525.55
2022-10-29T14:07:57.110Z,101515.44
2022-10-29T14:13:08.778Z,101505.95
2022-10-29T14:18:28.472Z,101499.69
2022-10-29T14:23:34.593Z,101507.69
2022-10-29T14:28:40.128Z,101504.35
2022-10-29T14:33:48.764Z,101496.47
2022-10-29T14:39:00.039Z,101488.44
2022-10-29T14:44:08.528Z,101487.46
2022-10-29T14:49:22.773Z,101480.94
2022-10-29T14:54:31.157Z,101477.50
2022-10-29T14:59:37.562Z,101464.94
2022-10-29T15:05:00.705Z,101470.10
2022-10-29T15:10:20.656Z,101477.87
2022-10-29T15:15:29.283Z,101471.07
2022-10-29T15:20:46.455Z,101470.09
2022-10-29T15:25:54.984Z,101466.00
2022-10-29T15:31:03.331Z,101463.48
2022-10-29T15:36:09.438Z,101465.56
2022-10-29T15:41:39.064Z,101461.22
2022-10-29T15:46:52.330Z,101462.44
2022-10-29T15:52:00.779Z,101464.36
2022-10-29T15:57:07.111Z,101465.72
2022-10-29T16:02:20.786Z,101467.91
2022-10-29T16:07:26.794Z,101464.30
2022-10-29T16:12:33.510Z,101464.80
2022-10-29T16:17:39.395Z,101464.37
2022-10-29T16:22:45.404Z,101480.20
2022-10-29T16:27:51.030Z,101478.08
2022-10-29T16:32:57.372Z,101480.74
2022-10-29T16:38:02.988Z,101480.10
2022-10-29T16:43:09.655Z,101482.66
2022-10-29T16:48:15.197Z,101466.53
2022-10-29T16:53:20.864Z,101470.59
2022-10-29T16:58:26.334Z,101474.24
2022-10-29T17:03:33.360Z,101468.34
2022-10-29T17:08:40.105Z,101476.27
2022-10-29T17:13:45.550Z,101469.66
2022-10-29T17:18:52.121Z,101475.94
2022-10-29T17:23:57.830Z,101466.73
2022-10-29T17:29:03.303Z,101458.73
2022-10-29T17:34:08.882Z,101452.95
2022-10-29T17:39:14.417Z,101446.56
2022-10-29T17:44:20.530Z,101450.99
2022-10-29T17:49:26.505Z,101462.31
2022-10-29T17:54:34.979Z,101453.97
2022-10-29T17:59:39.361Z,101452.09
2022-10-29T18:04:46.875Z,101454.13
2022-10-29T18:09:52.348Z,101457.31
2022-10-29T18:14:59.262Z,101472.25
2022-10-29T18:20:05.763Z,101460.69
2022-10-29T18:25:12.866Z,101459.45
2022-10-29T18:30:20.107Z,101459.82
2022-10-29T18:35:27.420Z,101486.48
2022-10-29T18:40:33.036Z,101496.33
2022-10-29T18:45:38.516Z,101481.63
2022-10-29T18:50:44.130Z,101476.91
2022-10-29T18:55:52.140Z,101484.91
2022-10-29T19:01:00.958Z,101468.80
2022-10-29T19:06:09.498Z,101471.28
2022-10-29T19:11:17.829Z,101462.30
2022-10-29T19:16:24.233Z,101442.73
2022-10-29T19:21:30.284Z,101424.94
2022-10-29T19:26:37.806Z,101425.05
2022-10-29T19:31:46.243Z,101432.63
2022-10-29T19:36:51.714Z,101437.55
2022-10-29T19:41:57.262Z,101436.69
2022-10-29T19:47:02.807Z,101443.22
2022-10-29T19:52:08.369Z,101435.59
2022-10-29T19:57:13.848Z,101432.14
2022-10-29T20:02:19.666Z,101424.67
2022-10-29T20:07:25.251Z,101442.36
2022-10-29T20:12:31.242Z,101434.25
2022-10-29T20:17:36.764Z,101444.46
2022-10-29T20:22:42.289Z,101437.21
2022-10-29T20:27:49.244Z,101433.27
2022-10-29T20:32:55.608Z,101445.02
2022-10-29T20:38:01.561Z,101448.83
2022-10-29T20:43:07.383Z,101455.81
2022-10-29T20:48:13.019Z,101454.83
2022-10-29T20:53:18.570Z,101450.17
2022-10-29T20:58:24.370Z,101447.47
2022-10-29T21:03:29.837Z,101453.80
2022-10-29T21:08:35.744Z,101455.86
2022-10-29T21:13:41.597Z,101461.41
2022-10-29T21:18:50.336Z,101459.47
2022-10-29T21:23:55.868Z,101455.31
2022-10-29T21:29:01.539Z,101463.58
2022-10-29T21:34:07.142Z,101466.27
2022-10-29T21:39:12.646Z,101463.13
2022-10-29T21:44:18.189Z,101465.30
2022-10-29T21:49:23.681Z,101469.94
2022-10-29T21:54:29.219Z,101467.22
2022-10-29T21:59:34.804Z,101446.69
2022-10-29T22:04:40.375Z,101448.62
2022-10-29T22:09:45.996Z,101450.20
2022-10-29T22:14:51.445Z,101443.66
2022-10-29T22:19:58.922Z,101447.33
2022-10-29T22:25:04.921Z,101438.95
2022-10-29T22:30:11.176Z,101436.50
2022-10-29T22:35:17.293Z,101439.73
2022-10-29T22:40:22.683Z,101434.44
2022-10-29T22:45:28.150Z,101432.71
2022-10-29T22:50:33.615Z,101438.59
2022-10-29T22:55:39.186Z,101433.30
2022-10-29T23:00:44.780Z,101424.55
2022-10-29T23:05:58.102Z,101424.91
2022-10-29T23:11:09.036Z,101426.56
2022-10-29T23:16:14.970Z,101428.79
2022-10-29T23:21:21.272Z,101412.32
2022-10-29T23:26:27.606Z,101412.42
2022-10-29T23:31:33.761Z,101409.59
2022-10-29T23:36:39.374Z,101421.84
2022-10-29T23:41:44.834Z,101427.72
2022-10-29T23:46:50.298Z,101421.19
2022-10-29T23:51:55.694Z,101414.54
2022-10-29T23:57:01.173Z,101384.96
